createdAt,value
2017-12-16T00:01:02.226Z,9.93
2017-12-16T00:03:28.241Z,13.17
2017-12-16T00:05:54.234Z,11.10
2017-12-16T00:08:20.258Z,8.00
2017-12-16T00:10:46.981Z,11.20
2017-12-16T00:13:12.915Z,9.13
2017-12-16T00:15:38.896Z,9.10
2017-12-16T00:18:04.886Z,8.67
2017-12-16T00:20:30.866Z,10.80
2017-12-16T00:22:56.845Z,9.93
2017-12-16T00:25:22.888Z,10.27
2017-12-16T00:27:48.914Z,9.20
2017-12-16T00:30:14.888Z,11.13
2017-12-16T00:32:40.824Z,10.07
2017-12-16T00:35:06.793Z,14.03
2017-12-16T00:37:32.796Z,16.00
2017-12-16T00:39:58.720Z,10.17
2017-12-16T00:42:24.677Z,12.00
2017-12-16T00:44:50.673Z,11.73
2017-12-16T00:47:16.607Z,11.20
2017-12-16T00:49:42.584Z,10.67
2017-12-16T00:52:08.568Z,10.27
2017-12-16T00:54:35.281Z,12.03
2017-12-16T00:57:01.222Z,15.63
2017-12-16T00:59:27.201Z,10.90
2017-12-16T01:01:53.216Z,10.23
2017-12-16T01:04:19.909Z,9.87
2017-12-16T01:06:45.905Z,11.27
2017-12-16T01:09:12.607Z,10.03
2017-12-16T01:11:38.582Z,12.03
2017-12-16T01:14:04.604Z,9.70
2017-12-16T01:16:30.593Z,10.70
2017-12-16T01:18:56.569Z,11.47
2017-12-16T01:21:22.533Z,11.40
2017-12-16T01:23:48.511Z,15.43
2017-12-16T01:26:14.513Z,13.00
2017-12-16T01:28:41.251Z,16.63
2017-12-16T01:31:07.191Z,11.30
2017-12-16T01:33:45.738Z,10.60
2017-12-16T01:36:24.812Z,10.50
2017-12-16T01:38:50.804Z,11.00
2017-12-16T01:41:17.504Z,12.50
2017-12-16T01:43:43.520Z,14.03
2017-12-16T01:46:09.465Z,11.77
2017-12-16T01:48:35.405Z,12.67
2017-12-16T01:51:01.376Z,11.17
2017-12-16T01:53:27.353Z,12.40
2017-12-16T01:55:54.052Z,12.97
2017-12-16T01:58:19.996Z,14.73
2017-12-16T02:00:45.989Z,12.93
2017-12-16T02:03:11.924Z,12.00
2017-12-16T02:05:37.952Z,11.10
2017-12-16T02:08:03.901Z,13.17
2017-12-16T02:10:29.896Z,11.10
2017-12-16T02:12:55.861Z,10.40
2017-12-16T02:15:22.606Z,13.73
2017-12-16T02:17:49.335Z,9.73
2017-12-16T02:20:15.272Z,12.40
2017-12-16T02:22:41.260Z,12.50
2017-12-16T02:25:07.213Z,13.70
2017-12-16T02:27:33.950Z,12.70
2017-12-16T02:29:59.929Z,11.70
2017-12-16T02:32:25.902Z,14.20
2017-12-16T02:34:51.921Z,12.37
2017-12-16T02:37:18.600Z,11.67
2017-12-16T02:39:44.532Z,12.60
2017-12-16T02:42:10.505Z,16.13
2017-12-16T02:44:36.440Z,12.40
2017-12-16T02:47:02.457Z,12.30
2017-12-16T02:49:28.388Z,12.73
2017-12-16T02:51:54.354Z,12.47
2017-12-16T02:54:20.292Z,17.10
2017-12-16T02:56:46.298Z,13.67
2017-12-16T02:59:12.233Z,12.47
2017-12-16T03:01:38.216Z,12.77
2017-12-16T03:04:04.162Z,11.93
2017-12-16T03:06:30.881Z,17.30
2017-12-16T03:08:56.818Z,11.70
2017-12-16T03:11:22.793Z,11.13
2017-12-16T03:13:49.508Z,12.90
2017-12-16T03:16:15.453Z,15.37
2017-12-16T03:18:41.445Z,12.17
2017-12-16T03:21:07.392Z,10.50
2017-12-16T03:23:33.337Z,10.73
2017-12-16T03:25:59.321Z,13.07
2017-12-16T03:28:26.001Z,12.03
2017-12-16T03:30:52.108Z,12.07
2017-12-16T03:33:18.794Z,10.23
2017-12-16T03:35:44.772Z,12.50
2017-12-16T03:38:10.717Z,13.50
2017-12-16T03:40:36.670Z,9.97
2017-12-16T03:43:03.372Z,10.30
2017-12-16T03:45:29.340Z,9.10
2017-12-16T03:47:55.315Z,11.33
2017-12-16T03:50:21.272Z,10.63
2017-12-16T03:52:47.231Z,9.57
2017-12-16T03:55:13.173Z,9.27
2017-12-16T03:57:39.166Z,11.90
2017-12-16T04:00:05.096Z,9.67
2017-12-16T04:02:31.056Z,12.77
2017-12-16T04:04:57.036Z,12.57
2017-12-16T04:07:23.762Z,11.63
2017-12-16T04:09:49.695Z,10.70
2017-12-16T04:12:15.668Z,12.80
2017-12-16T04:14:42.344Z,10.70
2017-12-16T04:17:08.347Z,10.70
2017-12-16T04:19:34.285Z,9.80
2017-12-16T04:22:01.014Z,10.80
2017-12-16T04:24:26.970Z,12.37
2017-12-16T04:26:52.939Z,10.83
2017-12-16T04:29:18.907Z,12.53
2017-12-16T04:31:44.850Z,11.20
2017-12-16T04:34:10.815Z,14.03
2017-12-16T04:36:37.492Z,11.63
2017-12-16T04:39:03.445Z,11.93
2017-12-16T04:41:29.425Z,13.30
2017-12-16T04:43:55.400Z,12.73
2017-12-16T04:46:21.370Z,12.47
2017-12-16T04:48:47.347Z,12.10
2017-12-16T04:51:14.016Z,12.43
2017-12-16T04:53:39.957Z,10.90
2017-12-16T04:56:05.956Z,14.67
2017-12-16T04:58:31.907Z,10.00
2017-12-16T05:00:58.622Z,10.37
2017-12-16T05:03:24.604Z,12.50
2017-12-16T05:05:51.301Z,10.90
2017-12-16T05:08:17.286Z,17.30
2017-12-16T05:10:44.009Z,17.67
2017-12-16T05:13:09.959Z,11.73
2017-12-16T05:15:35.933Z,14.43
2017-12-16T05:18:01.869Z,14.20
2017-12-16T05:20:27.840Z,14.07
2017-12-16T05:22:53.831Z,14.07
2017-12-16T05:25:19.782Z,14.27
2017-12-16T05:27:45.743Z,13.90
2017-12-16T05:30:11.713Z,13.80
2017-12-16T05:32:37.668Z,11.80
2017-12-16T05:35:04.394Z,11.63
2017-12-16T05:37:30.367Z,11.40
2017-12-16T05:39:56.292Z,13.10
2017-12-16T05:42:22.987Z,12.43
2017-12-16T05:44:48.976Z,15.80
2017-12-16T05:47:15.643Z,12.80
2017-12-16T05:49:41.625Z,15.37
2017-12-16T05:52:07.585Z,13.00
2017-12-16T05:54:34.324Z,12.53
2017-12-16T05:57:00.264Z,15.07
2017-12-16T05:59:26.258Z,15.63
2017-12-16T06:01:52.238Z,14.20
2017-12-16T06:04:18.955Z,14.10
2017-12-16T06:06:44.920Z,15.30
2017-12-16T06:09:10.856Z,15.03
2017-12-16T06:11:36.811Z,18.50
2017-12-16T06:14:03.498Z,13.27
2017-12-16T06:16:29.468Z,13.53
2017-12-16T06:18:55.426Z,13.90
2017-12-16T06:21:21.405Z,14.37
2017-12-16T06:23:47.372Z,15.60
2017-12-16T06:26:13.304Z,12.43
2017-12-16T06:28:39.266Z,13.53
2017-12-16T06:31:05.233Z,15.17
2017-12-16T06:33:31.190Z,12.27
2017-12-16T06:35:57.174Z,12.83
2017-12-16T06:38:23.112Z,15.07
2017-12-16T06:40:49.846Z,17.80
2017-12-16T06:43:15.838Z,13.33
2017-12-16T06:45:41.782Z,12.53
2017-12-16T06:48:07.753Z,11.60
2017-12-16T06:50:33.716Z,13.20
2017-12-16T06:53:00.426Z,13.90
2017-12-16T06:55:26.364Z,15.33
2017-12-16T06:57:52.440Z,15.27
2017-12-16T07:00:19.148Z,11.53
2017-12-16T07:02:45.129Z,12.73
2017-12-16T07:05:11.803Z,14.60
2017-12-16T07:07:37.759Z,10.97
2017-12-16T07:10:04.558Z,12.00
2017-12-16T07:12:30.443Z,12.00
2017-12-16T07:14:56.420Z,10.40
2017-12-16T07:17:22.416Z,14.37
2017-12-16T07:19:48.348Z,10.97
2017-12-16T07:22:14.284Z,12.43
2017-12-16T07:24:40.293Z,12.33
2017-12-16T07:27:06.266Z,15.37
2017-12-16T07:29:32.204Z,14.13
2017-12-16T07:31:58.177Z,13.60
2017-12-16T07:34:24.123Z,14.50
2017-12-16T07:36:50.952Z,17.30
2017-12-16T07:39:16.905Z,14.83
2017-12-16T07:41:42.840Z,17.43
2017-12-16T07:44:08.804Z,16.20
2017-12-16T07:46:34.745Z,18.43
2017-12-16T07:49:00.720Z,21.83
2017-12-16T07:51:26.683Z,17.33
2017-12-16T07:53:52.706Z,15.93
2017-12-16T07:56:19.413Z,15.73
2017-12-16T07:58:45.474Z,15.10
2017-12-16T08:01:11.427Z,16.73
2017-12-16T08:03:37.400Z,14.70
2017-12-16T08:06:04.137Z,17.77
2017-12-16T08:08:30.819Z,19.23
2017-12-16T08:10:56.804Z,17.37
2017-12-16T08:13:22.824Z,20.80
2017-12-16T08:15:48.812Z,16.73
2017-12-16T08:18:15.505Z,15.90
2017-12-16T08:20:41.447Z,17.83
2017-12-16T08:23:07.425Z,19.00
2017-12-16T08:25:34.152Z,17.30
2017-12-16T08:28:00.100Z,19.17
2017-12-16T08:30:26.078Z,25.23
2017-12-16T08:32:52.124Z,27.70
2017-12-16T08:35:18.043Z,28.93
2017-12-16T08:37:44.037Z,24.63
2017-12-16T08:40:09.993Z,23.73
2017-12-16T08:42:36.734Z,19.73
2017-12-16T08:45:03.509Z,23.67
2017-12-16T08:47:30.227Z,16.97
2017-12-16T08:49:56.195Z,22.10
2017-12-16T08:52:22.993Z,23.60
2017-12-16T08:54:48.996Z,19.00
2017-12-16T08:57:15.709Z,19.03
2017-12-16T08:59:41.700Z,21.03
2017-12-16T09:02:07.649Z,20.93
2017-12-16T09:04:33.634Z,19.60
2017-12-16T09:06:59.612Z,16.90
2017-12-16T09:09:25.582Z,18.30
2017-12-16T09:11:51.717Z,22.40
2017-12-16T09:14:17.667Z,20.47
2017-12-16T09:16:43.987Z,19.10
2017-12-16T09:19:10.045Z,20.93
2017-12-16T09:21:36.025Z,20.63
2017-12-16T09:24:01.988Z,20.20
2017-12-16T09:26:27.964Z,24.70
2017-12-16T09:28:53.904Z,29.47
2017-12-16T09:31:20.649Z,30.73
2017-12-16T09:33:46.641Z,30.60
2017-12-16T09:36:12.634Z,30.20
2017-12-16T09:38:39.333Z,30.30
2017-12-16T09:41:05.330Z,33.20
2017-12-16T09:43:32.022Z,32.07
2017-12-16T09:45:57.973Z,36.33
2017-12-16T09:48:23.970Z,35.37
2017-12-16T09:50:49.955Z,31.97
2017-12-16T09:53:15.939Z,32.10
2017-12-16T09:55:42.191Z,36.23
2017-12-16T09:58:08.184Z,32.97
2017-12-16T10:00:34.147Z,33.67
2017-12-16T10:03:00.192Z,30.87
2017-12-16T10:05:26.148Z,43.00
2017-12-16T10:07:52.123Z,29.40
2017-12-16T10:10:18.086Z,27.37
2017-12-16T10:12:44.865Z,24.93
2017-12-16T10:15:10.824Z,26.17
2017-12-16T10:17:36.806Z,26.20
2017-12-16T10:20:03.549Z,26.70
2017-12-16T10:22:30.269Z,28.40
2017-12-16T10:24:56.228Z,24.60
2017-12-16T10:27:22.226Z,30.60
2017-12-16T10:29:48.180Z,29.10
2017-12-16T10:32:14.208Z,26.40
2017-12-16T10:34:40.200Z,25.90
2017-12-16T10:37:06.894Z,31.27
2017-12-16T10:39:32.876Z,27.60
2017-12-16T10:41:59.600Z,25.90
2017-12-16T10:44:25.570Z,25.43
2017-12-16T10:46:52.305Z,28.27
2017-12-16T10:49:18.261Z,31.10
2017-12-16T10:51:45.027Z,25.13
2017-12-16T10:54:10.981Z,27.20
2017-12-16T10:56:36.989Z,26.53
2017-12-16T10:59:03.688Z,26.17
2017-12-16T11:01:29.710Z,30.80
2017-12-16T11:03:55.709Z,25.20
2017-12-16T11:06:22.437Z,26.67
2017-12-16T11:08:48.422Z,25.37
2017-12-16T11:11:14.442Z,27.40
2017-12-16T11:13:41.193Z,29.10
2017-12-16T11:16:07.935Z,25.10
2017-12-16T11:18:33.888Z,30.40
2017-12-16T11:21:00.642Z,21.37
2017-12-16T11:23:27.365Z,23.70
2017-12-16T11:25:53.312Z,23.60
2017-12-16T11:28:19.288Z,23.73
2017-12-16T11:30:45.280Z,26.00
2017-12-16T11:33:11.237Z,28.10
2017-12-16T11:35:37.206Z,30.23
2017-12-16T11:38:03.197Z,30.47
2017-12-16T11:40:29.892Z,25.10
2017-12-16T11:42:55.910Z,25.63
2017-12-16T11:45:21.874Z,24.93
2017-12-16T11:47:47.866Z,24.60
2017-12-16T11:50:14.591Z,22.90
2017-12-16T11:52:40.567Z,21.23
2017-12-16T11:55:06.540Z,21.70
2017-12-16T11:57:32.488Z,26.27
2017-12-16T11:59:58.486Z,28.50
2017-12-16T12:02:24.469Z,25.20
2017-12-16T12:04:50.426Z,32.00
2017-12-16T12:07:17.154Z,26.03
2017-12-16T12:09:43.161Z,26.93
2017-12-16T12:12:09.105Z,31.53
2017-12-16T12:14:35.071Z,23.87
2017-12-16T12:17:01.069Z,26.67
2017-12-16T12:19:27.051Z,23.17
2017-12-16T12:21:53.788Z,22.70
2017-12-16T12:24:19.753Z,26.77
2017-12-16T12:26:46.468Z,24.47
2017-12-16T12:29:12.469Z,22.97
2017-12-16T12:31:38.424Z,20.07
2017-12-16T12:34:04.457Z,22.77
2017-12-16T12:36:30.442Z,22.83
2017-12-16T12:38:57.164Z,23.27
2017-12-16T12:41:23.171Z,22.40
2017-12-16T12:43:49.130Z,21.30
2017-12-16T12:46:15.132Z,21.13
2017-12-16T12:48:41.071Z,22.40
2017-12-16T12:51:07.012Z,19.80
2017-12-16T12:53:32.984Z,24.83
2017-12-16T12:55:58.945Z,23.30
2017-12-16T12:58:25.641Z,21.83
2017-12-16T13:00:51.628Z,20.83
2017-12-16T13:03:18.345Z,24.33
2017-12-16T13:05:44.340Z,21.60
2017-12-16T13:08:10.284Z,23.03
2017-12-16T13:10:36.289Z,22.33
2017-12-16T13:13:02.992Z,25.00
2017-12-16T13:15:28.977Z,21.90
2017-12-16T13:17:55.810Z,20.80
2017-12-16T13:20:21.841Z,20.70
2017-12-16T13:22:47.778Z,17.93
2017-12-16T13:25:13.763Z,21.30
2017-12-16T13:27:39.716Z,20.23
2017-12-16T13:30:05.691Z,19.43
2017-12-16T13:32:31.714Z,21.27
2017-12-16T13:34:57.748Z,18.00
2017-12-16T13:37:23.704Z,17.53
2017-12-16T13:39:49.715Z,22.80
2017-12-16T13:42:16.450Z,19.00
2017-12-16T13:44:42.458Z,22.43
2017-12-16T13:47:09.193Z,19.60
2017-12-16T13:49:35.882Z,18.50
2017-12-16T13:52:01.885Z,20.00
2017-12-16T13:54:28.584Z,22.57
2017-12-16T13:56:54.546Z,25.43
2017-12-16T13:59:20.529Z,21.47
2017-12-16T14:01:47.275Z,21.17
2017-12-16T14:04:14.078Z,24.73
2017-12-16T14:06:40.073Z,30.33
2017-12-16T14:09:06.797Z,21.97
2017-12-16T14:11:32.766Z,24.40
2017-12-16T14:13:59.537Z,19.00
2017-12-16T14:16:25.551Z,20.47
2017-12-16T14:18:52.272Z,22.70
2017-12-16T14:21:18.292Z,20.67
2017-12-16T14:23:44.261Z,24.20
2017-12-16T14:26:10.265Z,22.00
2017-12-16T14:28:36.239Z,22.80
2017-12-16T14:31:02.177Z,24.77
2017-12-16T14:33:28.924Z,24.07
2017-12-16T14:35:54.865Z,20.03
2017-12-16T14:38:21.551Z,22.87
2017-12-16T14:40:47.533Z,22.87
2017-12-16T14:43:13.535Z,24.30
2017-12-16T14:45:39.521Z,20.60
2017-12-16T14:48:05.521Z,21.97
2017-12-16T14:50:31.522Z,25.20
2017-12-16T14:52:57.515Z,24.07
2017-12-16T14:55:23.469Z,25.37
2017-12-16T14:57:50.219Z,23.43
2017-12-16T15:00:16.200Z,27.57
2017-12-16T15:02:42.277Z,24.67
2017-12-16T15:05:08.258Z,22.10
2017-12-16T15:07:34.232Z,30.50
2017-12-16T15:10:00.212Z,27.13
2017-12-16T15:12:26.925Z,26.77
2017-12-16T15:14:52.918Z,28.30
2017-12-16T15:17:18.913Z,26.03
2017-12-16T15:19:44.906Z,22.53
2017-12-16T15:22:10.931Z,22.00
2017-12-16T15:24:36.905Z,24.67
2017-12-16T15:27:02.861Z,26.37
2017-12-16T15:29:28.842Z,24.60
2017-12-16T15:31:54.808Z,20.93
2017-12-16T15:34:20.830Z,22.90
2017-12-16T15:36:46.808Z,33.30
2017-12-16T15:39:12.765Z,26.30
2017-12-16T15:41:39.474Z,22.50
2017-12-16T15:44:05.484Z,24.70
2017-12-16T15:46:31.457Z,28.93
2017-12-16T15:48:57.395Z,26.80
2017-12-16T15:51:23.365Z,25.57
2017-12-16T15:53:50.040Z,23.93
2017-12-16T15:56:16.091Z,28.73
2017-12-16T15:58:42.052Z,26.43
2017-12-16T16:01:08.051Z,26.87
2017-12-16T16:03:34.070Z,25.30
2017-12-16T16:06:00.809Z,26.77
2017-12-16T16:08:27.486Z,19.80
2017-12-16T16:10:53.542Z,20.50
2017-12-16T16:13:19.541Z,24.40
2017-12-16T16:15:46.277Z,28.13
2017-12-16T16:18:12.224Z,23.50
2017-12-16T16:20:38.900Z,28.97
2017-12-16T16:23:04.911Z,23.57
2017-12-16T16:25:31.629Z,25.20
2017-12-16T16:27:57.560Z,29.03
2017-12-16T16:30:23.570Z,29.93
2017-12-16T16:32:49.501Z,28.83
2017-12-16T16:35:15.503Z,31.60
2017-12-16T16:37:42.244Z,29.53
2017-12-16T16:40:08.933Z,32.50
2017-12-16T16:42:34.960Z,24.53
2017-12-16T16:45:01.693Z,24.20
2017-12-16T16:47:27.631Z,26.43
2017-12-16T16:49:53.612Z,27.40
2017-12-16T16:52:19.606Z,27.10
2017-12-16T16:54:45.560Z,27.67
2017-12-16T16:57:12.342Z,23.10
2017-12-16T16:59:38.279Z,25.60
2017-12-16T17:02:04.293Z,27.27
2017-12-16T17:04:30.262Z,21.50
2017-12-16T17:06:56.296Z,25.10
2017-12-16T17:09:22.236Z,25.10
2017-12-16T17:11:48.306Z,23.20
2017-12-16T17:14:14.361Z,25.97
2017-12-16T17:16:41.072Z,21.57
2017-12-16T17:19:07.049Z,22.27
2017-12-16T17:21:33.741Z,19.53
2017-12-16T17:23:59.753Z,22.60
2017-12-16T17:26:25.772Z,21.37
2017-12-16T17:28:52.497Z,24.67
2017-12-16T17:31:18.519Z,21.90
2017-12-16T17:33:44.531Z,21.30
2017-12-16T17:36:10.513Z,22.40
2017-12-16T17:38:36.529Z,23.47
2017-12-16T17:41:02.536Z,28.23
2017-12-16T17:43:28.473Z,25.13
2017-12-16T17:45:54.453Z,24.10
2017-12-16T17:48:20.481Z,26.50
2017-12-16T17:50:46.486Z,20.20
2017-12-16T17:53:12.553Z,22.33
2017-12-16T17:55:38.492Z,22.67
2017-12-16T17:58:04.520Z,21.50
2017-12-16T18:00:30.517Z,21.33
2017-12-16T18:02:56.544Z,27.57
2017-12-16T18:05:23.220Z,24.47
2017-12-16T18:07:49.189Z,26.80
2017-12-16T18:10:15.335Z,19.60
2017-12-16T18:12:41.313Z,25.77
2017-12-16T18:15:07.290Z,24.73
2017-12-16T18:17:33.252Z,21.87
2017-12-16T18:19:59.258Z,25.90
2017-12-16T18:22:25.293Z,25.53
2017-12-16T18:24:51.281Z,26.67
2017-12-16T18:27:18.048Z,23.50
2017-12-16T18:29:44.752Z,22.87
2017-12-16T18:32:10.753Z,28.80
2017-12-16T18:34:36.771Z,28.17
2017-12-16T18:37:03.439Z,24.10
2017-12-16T18:39:29.469Z,25.53
2017-12-16T18:41:55.460Z,29.33
2017-12-16T18:44:21.452Z,24.40
2017-12-16T18:46:47.456Z,28.60
2017-12-16T18:49:14.177Z,26.13
2017-12-16T18:51:40.144Z,23.07
2017-12-16T18:54:06.872Z,27.57
2017-12-16T18:56:32.931Z,23.63
2017-12-16T18:58:58.871Z,25.20
2017-12-16T19:01:25.640Z,41.00
2017-12-16T19:03:52.415Z,25.10
2017-12-16T19:06:18.475Z,22.13
2017-12-16T19:08:44.515Z,27.85
2017-12-16T19:11:10.531Z,24.13
2017-12-16T19:13:36.546Z,22.13
2017-12-16T19:16:02.493Z,19.20
2017-12-16T19:18:28.524Z,19.97
2017-12-16T19:20:54.521Z,22.67
2017-12-16T19:23:20.539Z,21.53
2017-12-16T19:25:46.502Z,24.10
2017-12-16T19:28:12.558Z,23.37
2017-12-16T19:30:38.557Z,21.47
2017-12-16T19:33:04.600Z,23.67
2017-12-16T19:35:30.586Z,20.37
2017-12-16T19:37:56.605Z,22.80
2017-12-16T19:40:23.327Z,25.53
2017-12-16T19:42:49.357Z,22.30
2017-12-16T19:45:15.385Z,21.20
2017-12-16T19:47:41.383Z,23.77
2017-12-16T19:50:07.417Z,28.63
2017-12-16T19:52:33.360Z,22.17
2017-12-16T19:54:59.393Z,20.67
2017-12-16T19:57:25.409Z,19.17
2017-12-16T19:59:52.179Z,20.80
2017-12-16T20:02:18.218Z,22.00
2017-12-16T20:04:44.277Z,24.00
2017-12-16T20:07:10.254Z,18.10
2017-12-16T20:09:36.253Z,19.33
2017-12-16T20:12:02.290Z,20.80
2017-12-16T20:14:28.297Z,16.37
2017-12-16T20:16:54.268Z,14.57
2017-12-16T20:19:20.264Z,18.00
2017-12-16T20:21:47.051Z,14.43
2017-12-16T20:24:13.048Z,13.83
2017-12-16T20:26:39.084Z,15.47
2017-12-16T20:29:05.828Z,15.10
2017-12-16T20:31:32.613Z,15.17
2017-12-16T20:33:58.595Z,21.87
2017-12-16T20:36:24.600Z,15.67
2017-12-16T20:38:50.590Z,13.40
2017-12-16T20:41:16.637Z,11.60
2017-12-16T20:43:42.680Z,14.50
2017-12-16T20:46:08.722Z,14.10
2017-12-16T20:48:34.709Z,12.10
2017-12-16T20:51:00.719Z,15.57
2017-12-16T20:53:26.777Z,16.55
2017-12-16T20:55:52.799Z,15.33
2017-12-16T20:58:18.784Z,17.50
2017-12-16T21:00:44.976Z,16.87
2017-12-16T21:03:11.015Z,18.20
2017-12-16T21:05:37.039Z,13.40
2017-12-16T21:08:03.044Z,19.37
2017-12-16T21:10:29.824Z,12.00
2017-12-16T21:12:55.839Z,19.03
2017-12-16T21:15:22.571Z,14.13
2017-12-16T21:17:48.596Z,18.77
2017-12-16T21:20:14.667Z,14.87
2017-12-16T21:22:41.399Z,15.30
2017-12-16T21:25:07.424Z,16.20
2017-12-16T21:27:34.193Z,17.07
2017-12-16T21:30:00.200Z,18.40
2017-12-16T21:32:26.235Z,17.60
2017-12-16T21:34:52.261Z,18.10
2017-12-16T21:37:18.305Z,17.40
2017-12-16T21:39:44.320Z,19.20
2017-12-16T21:42:10.363Z,16.67
2017-12-16T21:44:36.355Z,14.53
2017-12-16T21:47:02.347Z,20.70
2017-12-16T21:49:28.425Z,22.97
2017-12-16T21:51:54.435Z,24.20
2017-12-16T21:54:20.432Z,18.93
2017-12-16T21:56:46.480Z,19.90
2017-12-16T21:59:12.475Z,21.23
2017-12-16T22:01:38.499Z,20.97
2017-12-16T22:04:04.516Z,22.20
2017-12-16T22:06:30.525Z,23.13
2017-12-16T22:08:56.524Z,15.70
2017-12-16T22:11:23.287Z,19.93
2017-12-16T22:13:50.015Z,19.23
2017-12-16T22:16:16.067Z,22.63
2017-12-16T22:18:42.084Z,16.33
2017-12-16T22:21:08.079Z,21.00
2017-12-16T22:23:34.140Z,18.43
2017-12-16T22:26:00.132Z,18.30
2017-12-16T22:28:26.902Z,15.50
2017-12-16T22:30:52.944Z,20.87
2017-12-16T22:33:25.975Z,21.90
2017-12-16T22:35:52.040Z,18.57
2017-12-16T22:38:25.127Z,16.07
2017-12-16T22:40:51.146Z,17.20
2017-12-16T22:43:17.180Z,18.23
2017-12-16T22:45:43.211Z,16.57
2017-12-16T22:48:09.242Z,13.33
2017-12-16T22:50:35.231Z,14.57
2017-12-16T22:53:01.238Z,17.67
2017-12-16T22:55:27.254Z,17.00
2017-12-16T22:57:53.253Z,18.27
2017-12-16T23:00:20.033Z,16.37
2017-12-16T23:02:46.064Z,18.90
2017-12-16T23:05:12.048Z,16.07
2017-12-16T23:07:38.067Z,16.90
2017-12-16T23:10:04.077Z,15.80
2017-12-16T23:12:30.128Z,20.60
2017-12-16T23:14:56.123Z,13.67
2017-12-16T23:17:22.874Z,14.03
2017-12-16T23:19:48.873Z,14.53
2017-12-16T23:22:14.900Z,14.20
2017-12-16T23:24:40.891Z,14.20
2017-12-16T23:27:07.651Z,15.93
2017-12-16T23:29:34.325Z,13.13
2017-12-16T23:32:00.364Z,14.90
2017-12-16T23:34:26.397Z,13.07
2017-12-16T23:36:52.379Z,16.90
2017-12-16T23:39:18.446Z,11.30
2017-12-16T23:41:45.138Z,15.63
2017-12-16T23:44:11.132Z,14.07
2017-12-16T23:46:37.909Z,13.10
2017-12-16T23:49:03.891Z,10.13
2017-12-16T23:51:29.916Z,10.43
2017-12-16T23:53:55.955Z,12.80
2017-12-16T23:56:21.927Z,10.00
2017-12-16T23:58:47.863Z,12.03
